createdAt,value
2019-06-26T00:00:46.291Z,17.93
2019-06-26T00:03:16.704Z,16.73
2019-06-26T00:05:47.088Z,14.70
2019-06-26T00:08:17.556Z,12.30
2019-06-26T00:10:47.930Z,10.87
2019-06-26T00:13:26.319Z,13.72
2019-06-26T00:15:50.999Z,16.05
2019-06-26T00:18:21.398Z,13.03
2019-06-26T00:20:51.827Z,10.93
2019-06-26T00:23:22.227Z,13.50
2019-06-26T00:25:52.624Z,18.67
2019-06-26T00:28:23.051Z,19.53
2019-06-26T00:30:53.455Z,18.73
2019-06-26T00:33:23.858Z,20.63
2019-06-26T00:35:54.277Z,20.30
2019-06-26T00:38:24.703Z,19.97
2019-06-26T00:40:55.063Z,21.43
2019-06-26T00:43:38.485Z,20.82
2019-06-26T00:45:57.499Z,18.55
2019-06-26T00:48:27.873Z,18.57
2019-06-26T00:50:58.281Z,16.20
2019-06-26T00:53:28.659Z,12.73
2019-06-26T00:55:59.039Z,13.05
2019-06-26T00:58:29.702Z,16.87
2019-06-26T01:01:00.122Z,14.05
2019-06-26T01:03:30.465Z,13.70
2019-06-26T01:06:00.986Z,10.10
2019-06-26T01:08:31.379Z,9.30
2019-06-26T01:11:01.750Z,10.50
2019-06-26T01:13:32.189Z,10.90
2019-06-26T01:16:02.629Z,12.90
2019-06-26T01:18:32.968Z,12.63
2019-06-26T01:21:03.328Z,15.00
2019-06-26T01:23:33.711Z,13.10
2019-06-26T01:26:04.058Z,13.62
2019-06-26T01:28:34.506Z,14.20
2019-06-26T01:31:04.882Z,13.40
2019-06-26T01:33:35.246Z,13.22
2019-06-26T01:36:05.701Z,15.20
2019-06-26T01:38:36.122Z,18.77
2019-06-26T01:41:06.515Z,18.27
2019-06-26T01:43:36.888Z,18.80
2019-06-26T01:46:07.335Z,18.90
2019-06-26T01:48:37.681Z,15.67
2019-06-26T01:51:08.071Z,18.98
2019-06-26T01:53:38.718Z,18.17
2019-06-26T01:56:09.569Z,13.43
2019-06-26T01:58:39.954Z,12.40
2019-06-26T02:01:10.370Z,12.80
2019-06-26T02:03:40.810Z,12.37
2019-06-26T02:06:11.165Z,15.13
2019-06-26T02:08:41.595Z,15.50
2019-06-26T02:11:11.911Z,17.45
2019-06-26T02:13:42.291Z,17.63
2019-06-26T02:16:12.752Z,18.30
2019-06-26T02:18:56.371Z,18.73
2019-06-26T02:21:26.896Z,17.10
2019-06-26T02:23:57.291Z,14.85
2019-06-26T02:26:27.696Z,12.90
2019-06-26T02:28:58.566Z,12.05
2019-06-26T02:31:29.297Z,14.60
2019-06-26T02:33:59.685Z,16.13
2019-06-26T02:36:30.069Z,17.02
2019-06-26T02:39:00.466Z,17.53
2019-06-26T02:41:30.874Z,16.23
2019-06-26T02:44:01.378Z,18.85
2019-06-26T02:46:31.736Z,16.33
2019-06-26T02:49:02.176Z,16.07
2019-06-26T02:51:32.575Z,15.67
2019-06-26T02:54:03.014Z,14.90
2019-06-26T02:56:33.401Z,13.10
2019-06-26T02:59:03.832Z,13.10
2019-06-26T03:01:34.224Z,11.60
2019-06-26T03:04:04.594Z,11.00
2019-06-26T03:06:35.039Z,12.50
2019-06-26T03:09:07.299Z,12.13
2019-06-26T03:11:37.787Z,13.03
2019-06-26T03:14:08.168Z,15.17
2019-06-26T03:16:38.598Z,14.67
2019-06-26T03:19:09.066Z,15.90
2019-06-26T03:21:39.750Z,15.20
2019-06-26T03:24:10.112Z,11.70
2019-06-26T03:26:40.512Z,11.50
2019-06-26T03:29:10.864Z,12.70
2019-06-26T03:31:41.232Z,15.83
2019-06-26T03:34:11.605Z,15.53
2019-06-26T03:36:42.051Z,15.43
2019-06-26T03:39:12.491Z,15.30
2019-06-26T03:41:42.909Z,15.30
2019-06-26T03:44:13.343Z,15.77
2019-06-26T03:46:43.719Z,15.33
2019-06-26T03:49:14.144Z,16.90
2019-06-26T03:51:44.501Z,16.27
2019-06-26T03:54:14.905Z,17.07
2019-06-26T03:56:45.405Z,16.95
2019-06-26T03:59:15.951Z,18.83
2019-06-26T04:01:46.359Z,16.32
2019-06-26T04:04:16.782Z,16.60
2019-06-26T04:06:47.287Z,16.77
2019-06-26T04:09:17.672Z,16.10
2019-06-26T04:11:48.525Z,15.90
2019-06-26T04:14:19.285Z,16.80
2019-06-26T04:16:49.682Z,16.45
2019-06-26T04:19:20.099Z,15.13
2019-06-26T04:21:50.465Z,15.43
2019-06-26T04:24:20.826Z,15.10
2019-06-26T04:26:51.192Z,16.57
2019-06-26T04:29:21.615Z,14.57
2019-06-26T04:31:51.972Z,14.75
2019-06-26T04:34:22.700Z,14.93
2019-06-26T04:36:53.084Z,13.95
2019-06-26T04:39:23.476Z,13.97
2019-06-26T04:41:53.884Z,15.00
2019-06-26T04:44:24.310Z,14.53
2019-06-26T04:46:54.694Z,16.75
2019-06-26T04:49:25.084Z,14.90
2019-06-26T04:51:55.432Z,14.47
2019-06-26T04:54:25.858Z,13.65
2019-06-26T04:56:56.243Z,15.38
2019-06-26T04:59:26.601Z,14.23
2019-06-26T05:01:56.983Z,15.97
2019-06-26T05:04:27.762Z,14.98
2019-06-26T05:07:00.433Z,14.73
2019-06-26T05:09:30.782Z,14.80
2019-06-26T05:12:01.162Z,13.60
2019-06-26T05:14:34.582Z,13.37
2019-06-26T05:17:04.972Z,12.73
2019-06-26T05:19:35.353Z,12.47
2019-06-26T05:22:05.791Z,13.40
2019-06-26T05:24:36.151Z,12.90
2019-06-26T05:27:06.536Z,11.80
2019-06-26T05:29:36.905Z,12.85
2019-06-26T05:32:07.285Z,12.20
2019-06-26T05:34:37.708Z,11.65
2019-06-26T05:37:08.832Z,11.93
2019-06-26T05:39:39.500Z,11.63
2019-06-26T05:42:10.068Z,11.10
2019-06-26T05:44:40.522Z,11.60
2019-06-26T05:47:10.902Z,11.05
2019-06-26T05:49:41.304Z,11.57
2019-06-26T05:52:11.706Z,9.85
2019-06-26T05:54:42.062Z,10.10
2019-06-26T05:57:12.506Z,10.15
2019-06-26T05:59:43.068Z,11.50
2019-06-26T06:02:14.638Z,10.35
2019-06-26T06:04:45.070Z,9.88
2019-06-26T06:07:15.574Z,9.00
2019-06-26T06:09:45.970Z,9.95
2019-06-26T06:12:16.425Z,9.70
2019-06-26T06:14:46.867Z,10.35
2019-06-26T06:19:48.681Z,10.40
2019-06-26T06:22:19.410Z,9.65
2019-06-26T06:24:49.836Z,9.80
2019-06-26T06:29:49.728Z,9.48
2019-06-26T06:34:49.844Z,9.60
2019-06-26T06:37:20.298Z,9.13
2019-06-26T06:39:50.726Z,8.20
2019-06-26T06:42:21.155Z,8.58
2019-06-26T06:44:51.634Z,7.83
2019-06-26T06:47:22.117Z,7.80
2019-06-26T06:49:52.596Z,7.75
2019-06-26T06:52:23.203Z,6.90
2019-06-26T06:54:53.693Z,7.97
2019-06-26T06:57:24.140Z,7.37
2019-06-26T06:59:54.646Z,7.22
2019-06-26T07:02:25.296Z,7.37
2019-06-26T07:04:55.827Z,7.62
2019-06-26T07:07:27.383Z,6.83
2019-06-26T07:09:57.842Z,7.08
2019-06-26T07:12:28.956Z,6.55
2019-06-26T07:14:59.842Z,6.85
2019-06-26T07:17:30.393Z,6.53
2019-06-26T07:20:00.875Z,6.28
2019-06-26T07:22:31.401Z,7.30
2019-06-26T07:25:01.891Z,6.58
2019-06-26T07:27:32.362Z,6.90
2019-06-26T07:30:02.864Z,7.70
2019-06-26T07:32:33.364Z,6.80
2019-06-26T07:35:04.271Z,6.70
2019-06-26T07:37:34.724Z,7.30
2019-06-26T07:40:05.900Z,7.75
2019-06-26T07:42:36.419Z,7.42
2019-06-26T07:45:06.989Z,7.95
2019-06-26T07:51:52.145Z,7.83
2019-06-26T07:54:23.565Z,8.20
2019-06-26T07:56:53.932Z,7.70
2019-06-26T07:59:24.339Z,7.45
2019-06-26T08:01:54.694Z,7.05
2019-06-26T08:04:25.206Z,7.22
2019-06-26T08:06:55.521Z,7.53
2019-06-26T08:09:25.932Z,7.12
2019-06-26T08:11:57.315Z,6.90
2019-06-26T08:14:27.684Z,7.50
2019-06-26T08:16:58.704Z,8.48
2019-06-26T08:19:29.503Z,7.53
2019-06-26T08:22:00.976Z,7.47
2019-06-26T08:24:31.359Z,6.67
2019-06-26T08:27:01.805Z,6.95
2019-06-26T08:29:32.179Z,6.75
2019-06-26T08:32:02.560Z,7.05
2019-06-26T08:34:33.017Z,7.12
2019-06-26T08:37:03.500Z,6.20
2019-06-26T08:39:33.841Z,6.25
2019-06-26T08:42:04.392Z,6.37
2019-06-26T08:44:34.803Z,6.50
2019-06-26T08:47:05.212Z,6.65
2019-06-26T08:49:35.562Z,6.50
2019-06-26T08:52:07.034Z,6.58
2019-06-26T08:54:37.427Z,6.40
2019-06-26T08:57:07.801Z,6.22
2019-06-26T08:59:38.813Z,6.53
2019-06-26T09:02:09.537Z,7.12
2019-06-26T09:04:39.938Z,6.80
2019-06-26T09:07:14.249Z,6.85
2019-06-26T09:09:55.912Z,6.30
2019-06-26T09:12:30.457Z,6.72
2019-06-26T09:15:08.720Z,5.95
2019-06-26T09:17:39.501Z,7.20
2019-06-26T09:20:10.930Z,6.83
2019-06-26T09:22:41.351Z,6.65
2019-06-26T09:25:21.826Z,7.33
2019-06-26T09:27:43.923Z,6.58
2019-06-26T09:30:14.495Z,6.55
2019-06-26T09:32:44.890Z,6.17
2019-06-26T09:35:15.377Z,6.97
2019-06-26T09:37:45.715Z,5.92
2019-06-26T09:40:16.532Z,6.58
2019-06-26T09:42:46.957Z,5.97
2019-06-26T09:45:17.470Z,5.92
2019-06-26T09:47:48.574Z,6.62
2019-06-26T09:50:20.056Z,6.80
2019-06-26T09:52:50.454Z,6.20
2019-06-26T09:55:20.974Z,6.53
2019-06-26T09:57:51.352Z,5.90
2019-06-26T10:00:22.645Z,5.72
2019-06-26T10:02:53.103Z,6.10
2019-06-26T10:05:23.545Z,6.47
2019-06-26T10:07:53.974Z,6.45
2019-06-26T10:10:24.397Z,6.25
2019-06-26T10:12:54.799Z,6.28
2019-06-26T10:15:26.056Z,6.83
2019-06-26T10:17:57.178Z,6.90
2019-06-26T10:20:27.625Z,5.87
2019-06-26T10:22:57.993Z,5.50
2019-06-26T10:25:28.777Z,5.70
2019-06-26T10:27:59.488Z,5.25
2019-06-26T10:30:29.877Z,5.83
2019-06-26T10:33:00.270Z,5.75
2019-06-26T10:35:30.652Z,6.05
2019-06-26T10:38:01.086Z,6.42
2019-06-26T10:40:31.441Z,6.35
2019-06-26T10:43:01.871Z,5.70
2019-06-26T10:45:35.938Z,6.08
2019-06-26T10:48:04.397Z,5.65
2019-06-26T10:50:47.484Z,5.10
2019-06-26T10:53:06.844Z,4.30
2019-06-26T10:55:37.301Z,5.47
2019-06-26T10:58:07.731Z,5.62
2019-06-26T11:00:38.867Z,5.28
2019-06-26T11:03:09.554Z,4.37
2019-06-26T11:05:40.059Z,4.85
2019-06-26T11:08:10.571Z,4.95
2019-06-26T11:10:40.941Z,5.05
2019-06-26T11:13:11.500Z,4.83
2019-06-26T11:15:41.928Z,4.72
2019-06-26T11:18:12.395Z,4.62
2019-06-26T11:20:42.837Z,4.35
2019-06-26T11:23:13.325Z,4.22
2019-06-26T11:25:44.621Z,5.08
2019-06-26T11:28:15.322Z,4.62
2019-06-26T11:30:45.696Z,4.28
2019-06-26T11:33:16.049Z,4.67
2019-06-26T11:35:46.422Z,4.28
2019-06-26T11:38:16.791Z,4.47
2019-06-26T11:40:47.164Z,5.10
2019-06-26T11:43:17.465Z,4.45
2019-06-26T11:45:47.978Z,4.53
2019-06-26T11:48:18.422Z,5.35
2019-06-26T11:50:48.774Z,5.10
2019-06-26T11:55:48.536Z,4.90
2019-06-26T11:58:20.137Z,4.72
2019-06-26T12:00:50.496Z,5.42
2019-06-26T12:03:20.993Z,5.10
2019-06-26T12:05:51.416Z,5.53
2019-06-26T12:08:21.803Z,5.17
2019-06-26T12:10:52.167Z,4.62
2019-06-26T12:13:22.609Z,5.37
2019-06-26T12:15:53.279Z,4.85
2019-06-26T12:20:53.047Z,5.10
2019-06-26T12:23:23.715Z,5.28
2019-06-26T12:25:54.053Z,5.35
2019-06-26T12:28:24.506Z,5.30
2019-06-26T12:30:54.867Z,5.12
2019-06-26T12:33:25.281Z,4.85
2019-06-26T12:35:55.697Z,5.62
2019-06-26T12:38:26.062Z,5.33
2019-06-26T12:40:56.454Z,4.90
2019-06-26T12:43:26.925Z,4.90
2019-06-26T12:45:57.323Z,5.35
2019-06-26T12:48:27.717Z,5.00
2019-06-26T12:50:58.081Z,4.42
2019-06-26T12:53:28.449Z,5.40
2019-06-26T12:55:58.800Z,5.15
2019-06-26T12:58:29.284Z,5.33
2019-06-26T13:00:59.610Z,5.00
2019-06-26T13:03:30.528Z,5.10
2019-06-26T13:06:00.939Z,5.03
2019-06-26T13:08:31.317Z,5.25
2019-06-26T13:11:01.693Z,5.62
2019-06-26T13:13:32.055Z,5.97
2019-06-26T13:16:02.457Z,5.47
2019-06-26T13:18:32.845Z,5.45
2019-06-26T13:21:05.156Z,5.47
2019-06-26T13:23:35.410Z,5.35
2019-06-26T13:26:05.775Z,5.12
2019-06-26T13:28:36.240Z,4.97
2019-06-26T13:31:06.587Z,5.72
2019-06-26T13:33:36.973Z,4.95
2019-06-26T13:36:07.352Z,4.85
2019-06-26T13:38:37.699Z,4.33
2019-06-26T13:41:08.075Z,4.60
2019-06-26T13:43:38.476Z,4.70
2019-06-26T13:46:08.833Z,4.58
2019-06-26T13:48:40.240Z,4.67
2019-06-26T13:51:10.705Z,4.53
2019-06-26T13:53:41.140Z,4.30
2019-06-26T13:56:11.792Z,4.40
2019-06-26T14:01:11.753Z,4.70
2019-06-26T14:03:42.080Z,4.42
2019-06-26T14:06:12.462Z,3.72
2019-06-26T14:08:42.836Z,5.25
2019-06-26T14:11:13.255Z,4.92
2019-06-26T14:13:43.637Z,5.20
2019-06-26T14:16:14.015Z,5.05
2019-06-26T14:18:44.420Z,5.30
2019-06-26T14:21:25.042Z,5.50
2019-06-26T14:23:46.950Z,5.03
2019-06-26T14:26:17.336Z,5.15
2019-06-26T14:28:47.841Z,5.10
2019-06-26T14:31:18.310Z,4.60
2019-06-26T14:33:48.819Z,5.72
2019-06-26T14:36:22.369Z,5.60
2019-06-26T14:38:51.280Z,5.08
2019-06-26T14:41:21.692Z,4.75
2019-06-26T14:43:52.101Z,5.15
2019-06-26T14:46:22.513Z,5.17
2019-06-26T14:48:52.951Z,5.22
2019-06-26T14:51:23.329Z,5.85
2019-06-26T14:53:53.829Z,5.22
2019-06-26T14:56:24.190Z,5.50
2019-06-26T14:58:54.677Z,5.65
2019-06-26T15:01:25.027Z,5.55
2019-06-26T15:03:55.472Z,6.08
2019-06-26T15:06:25.949Z,5.85
2019-06-26T15:08:56.356Z,4.85
2019-06-26T15:11:26.757Z,5.08
2019-06-26T15:13:57.209Z,5.60
2019-06-26T15:16:30.367Z,5.35
2019-06-26T15:18:59.745Z,5.67
2019-06-26T15:21:30.221Z,5.42
2019-06-26T15:24:00.667Z,6.03
2019-06-26T15:26:31.148Z,5.87
2019-06-26T15:29:01.622Z,5.42
2019-06-26T15:31:32.106Z,5.70
2019-06-26T15:34:02.755Z,5.55
2019-06-26T15:36:33.183Z,5.60
2019-06-26T15:39:06.457Z,5.35
2019-06-26T15:41:36.857Z,5.75
2019-06-26T15:44:07.313Z,5.70
2019-06-26T15:46:37.656Z,5.87
2019-06-26T15:49:08.490Z,6.03
2019-06-26T15:51:39.572Z,6.28
2019-06-26T15:54:10.015Z,6.55
2019-06-26T15:56:40.407Z,6.70
2019-06-26T15:59:10.750Z,6.42
2019-06-26T16:01:45.705Z,6.22
2019-06-26T16:04:16.170Z,6.37
2019-06-26T16:06:46.534Z,6.50
2019-06-26T16:09:16.902Z,6.55
2019-06-26T16:11:47.421Z,6.42
2019-06-26T16:14:17.859Z,6.10
2019-06-26T16:19:20.650Z,6.85
2019-06-26T16:21:50.996Z,6.45
2019-06-26T16:24:22.000Z,6.65
2019-06-26T16:29:22.391Z,6.58
2019-06-26T16:31:52.916Z,6.20
2019-06-26T16:34:23.338Z,6.45
2019-06-26T16:36:53.776Z,6.47
2019-06-26T16:39:24.129Z,6.95
2019-06-26T16:41:54.504Z,6.95
2019-06-26T16:44:24.869Z,6.53
2019-06-26T16:46:59.004Z,7.00
2019-06-26T16:49:27.341Z,6.90
2019-06-26T16:51:57.837Z,6.87
2019-06-26T16:54:28.230Z,7.00
2019-06-26T16:56:58.655Z,7.05
2019-06-26T16:59:29.139Z,7.37
2019-06-26T17:01:59.573Z,7.67
2019-06-26T17:04:29.939Z,6.70
2019-06-26T17:07:00.279Z,6.72
2019-06-26T17:09:30.697Z,7.25
2019-06-26T17:12:01.088Z,7.20
2019-06-26T17:14:31.458Z,7.15
2019-06-26T17:17:02.105Z,6.30
2019-06-26T17:19:33.974Z,6.72
2019-06-26T17:22:04.585Z,7.33
2019-06-26T17:24:35.013Z,7.45
2019-06-26T17:27:05.426Z,7.12
2019-06-26T17:29:35.946Z,7.37
2019-06-26T17:32:06.355Z,6.90
2019-06-26T17:34:36.835Z,7.83
2019-06-26T17:37:07.289Z,7.78
2019-06-26T17:39:37.660Z,8.23
2019-06-26T17:42:08.051Z,7.35
2019-06-26T17:44:38.503Z,8.08
2019-06-26T17:47:08.858Z,8.23
2019-06-26T17:49:40.900Z,7.75
2019-06-26T17:52:11.412Z,7.28
2019-06-26T17:54:41.810Z,8.10
2019-06-26T17:57:12.247Z,7.80
2019-06-26T17:59:42.716Z,7.50
2019-06-26T18:02:13.072Z,7.22
2019-06-26T18:04:43.500Z,7.80
2019-06-26T18:07:13.877Z,7.65
2019-06-26T18:09:44.279Z,8.25
2019-06-26T18:12:14.672Z,7.85
2019-06-26T18:14:45.051Z,8.38
2019-06-26T18:17:21.895Z,8.08
2019-06-26T18:19:47.531Z,7.00
2019-06-26T18:22:17.916Z,8.23
2019-06-26T18:24:48.391Z,8.15
2019-06-26T18:27:18.841Z,7.97
2019-06-26T18:29:49.210Z,7.70
2019-06-26T18:32:19.708Z,7.80
2019-06-26T18:34:50.087Z,8.40
2019-06-26T18:37:20.541Z,7.90
2019-06-26T18:39:50.894Z,7.75
2019-06-26T18:42:21.327Z,7.87
2019-06-26T18:44:51.802Z,7.78
2019-06-26T18:47:22.183Z,8.33
2019-06-26T18:49:52.560Z,7.40
2019-06-26T18:52:22.889Z,7.87
2019-06-26T18:54:53.329Z,8.85
2019-06-26T18:57:23.736Z,9.93
2019-06-26T18:59:54.160Z,10.23
2019-06-26T19:02:24.586Z,9.23
2019-06-26T19:04:55.004Z,8.88
2019-06-26T19:07:25.439Z,8.90
2019-06-26T19:09:55.820Z,8.40
2019-06-26T19:12:26.180Z,8.33
2019-06-26T19:14:57.646Z,8.75
2019-06-26T19:17:28.501Z,8.95
2019-06-26T19:19:58.960Z,9.05
2019-06-26T19:22:30.787Z,8.60
2019-06-26T19:25:01.298Z,8.73
2019-06-26T19:27:31.853Z,8.63
2019-06-26T19:30:02.324Z,8.48
2019-06-26T19:32:32.741Z,9.00
2019-06-26T19:35:07.893Z,9.28
2019-06-26T19:37:35.295Z,9.83
2019-06-26T19:40:08.439Z,9.10
2019-06-26T19:42:38.255Z,8.53
2019-06-26T19:45:09.323Z,8.80
2019-06-26T19:50:09.084Z,9.05
2019-06-26T19:52:39.701Z,8.43
2019-06-26T19:55:11.399Z,9.08
2019-06-26T19:57:41.833Z,8.90
2019-06-26T20:00:12.651Z,8.13
2019-06-26T20:02:43.059Z,8.65
2019-06-26T20:05:15.022Z,8.65
2019-06-26T20:07:45.423Z,9.53
2019-06-26T20:10:16.055Z,9.08
2019-06-26T20:12:46.469Z,9.03
2019-06-26T20:15:16.982Z,8.03
2019-06-26T20:17:47.538Z,8.18
2019-06-26T20:20:18.016Z,8.48
2019-06-26T20:22:48.819Z,8.28
2019-06-26T20:25:19.721Z,8.50
2019-06-26T20:27:56.655Z,8.80
2019-06-26T20:30:25.668Z,8.68
2019-06-26T20:32:56.148Z,8.18
2019-06-26T20:35:26.700Z,8.90
2019-06-26T20:37:57.369Z,7.67
2019-06-26T20:40:27.822Z,8.13
2019-06-26T20:42:58.735Z,7.80
2019-06-26T20:45:29.565Z,8.73
2019-06-26T20:48:00.025Z,8.10
2019-06-26T20:50:30.567Z,8.60
2019-06-26T20:53:00.972Z,8.23
2019-06-26T20:55:31.468Z,7.30
2019-06-26T20:58:02.023Z,8.65
2019-06-26T21:00:32.528Z,8.13
2019-06-26T21:03:03.060Z,8.53
2019-06-26T21:05:33.606Z,7.83
2019-06-26T21:08:04.180Z,7.95
2019-06-26T21:10:34.642Z,7.90
2019-06-26T21:13:05.298Z,7.17
2019-06-26T21:15:35.796Z,7.60
2019-06-26T21:18:06.243Z,7.85
2019-06-26T21:20:36.629Z,8.18
2019-06-26T21:23:17.966Z,7.95
2019-06-26T21:25:40.437Z,7.37
2019-06-26T21:28:10.888Z,7.87
2019-06-26T21:30:41.323Z,7.70
2019-06-26T21:33:11.734Z,7.58
2019-06-26T21:35:44.327Z,8.00
2019-06-26T21:38:14.726Z,8.23
2019-06-26T21:40:45.184Z,7.97
2019-06-26T21:43:15.544Z,8.30
2019-06-26T21:46:22.659Z,7.90
2019-06-26T21:48:59.411Z,8.10
2019-06-26T21:51:30.670Z,9.13
2019-06-26T21:54:02.259Z,7.33
2019-06-26T21:56:33.206Z,8.38
2019-06-26T22:01:33.756Z,8.25
2019-06-26T22:04:04.694Z,7.83
2019-06-26T22:06:35.537Z,7.97
2019-06-26T22:12:12.574Z,7.85
2019-06-26T22:15:18.922Z,8.58
2019-06-26T22:18:25.022Z,9.10
2019-06-26T22:21:30.961Z,8.55
2019-06-26T22:24:37.020Z,8.20
2019-06-26T22:27:09.438Z,8.50
2019-06-26T22:29:39.871Z,8.43
2019-06-26T22:32:10.265Z,8.30
2019-06-26T22:34:40.752Z,8.35
2019-06-26T22:37:12.228Z,8.18
2019-06-26T22:39:42.642Z,8.15
2019-06-26T22:42:12.998Z,8.80
2019-06-26T22:44:43.756Z,8.48
2019-06-26T22:47:14.259Z,9.00
2019-06-26T22:49:44.632Z,8.60
2019-06-26T22:52:15.003Z,8.65
2019-06-26T22:54:45.966Z,7.40
2019-06-26T22:57:16.336Z,8.80
2019-06-26T22:59:47.680Z,8.13
2019-06-26T23:02:18.623Z,8.40
2019-06-26T23:04:49.220Z,8.15
2019-06-26T23:07:19.624Z,9.60
2019-06-26T23:09:50.000Z,8.63
2019-06-26T23:12:20.586Z,8.50
2019-06-26T23:14:51.041Z,7.92
2019-06-26T23:17:21.411Z,8.60
2019-06-26T23:19:51.812Z,8.60
2019-06-26T23:22:22.266Z,8.73
2019-06-26T23:24:52.672Z,8.38
2019-06-26T23:27:24.079Z,7.85
2019-06-26T23:29:54.486Z,7.53
2019-06-26T23:32:25.070Z,7.92
2019-06-26T23:34:55.495Z,8.23
2019-06-26T23:37:25.900Z,8.58
2019-06-26T23:39:56.280Z,8.18
2019-06-26T23:42:26.643Z,8.70
2019-06-26T23:44:57.171Z,8.20
2019-06-26T23:47:27.621Z,8.43
2019-06-26T23:49:58.437Z,8.30
2019-06-26T23:52:29.180Z,8.20
2019-06-26T23:54:59.600Z,8.30
2019-06-26T23:57:29.970Z,8.30
